createdAt,value
2023-08-25T00:00:11.834Z,15.40
2023-08-25T00:02:49.067Z,14.30
2023-08-25T00:05:18.465Z,14.55
2023-08-25T00:07:47.475Z,14.88
2023-08-25T00:10:16.569Z,14.48
2023-08-25T00:12:48.680Z,16.13
2023-08-25T00:15:18.089Z,16.67
2023-08-25T00:17:47.854Z,17.45
2023-08-25T00:20:16.820Z,18.33
2023-08-25T00:22:45.889Z,17.45
2023-08-25T00:25:15.112Z,19.73
2023-08-25T00:27:50.127Z,17.50
2023-08-25T00:30:19.296Z,17.67
2023-08-25T00:32:50.426Z,17.25
2023-08-25T00:35:19.805Z,17.60
2023-08-25T00:37:52.366Z,17.83
2023-08-25T00:40:24.338Z,18.88
2023-08-25T00:42:53.786Z,17.45
2023-08-25T00:45:30.267Z,18.73
2023-08-25T00:47:59.525Z,17.67
2023-08-25T00:50:31.218Z,17.88
2023-08-25T00:53:00.426Z,16.98
2023-08-25T00:55:29.692Z,18.08
2023-08-25T00:57:59.780Z,17.17
2023-08-25T01:00:31.417Z,17.63
2023-08-25T01:03:00.686Z,16.85
2023-08-25T01:05:32.401Z,16.50
2023-08-25T01:08:07.071Z,14.35
2023-08-25T01:10:55.951Z,15.00
2023-08-25T01:13:52.959Z,14.68
2023-08-25T01:16:32.053Z,15.18
2023-08-25T01:19:02.952Z,14.35
2023-08-25T01:21:37.501Z,14.75
2023-08-25T01:24:30.302Z,14.35
2023-08-25T01:27:00.312Z,14.27
2023-08-25T01:29:29.349Z,14.52
2023-08-25T01:31:58.622Z,14.93
2023-08-25T01:34:27.772Z,14.25
2023-08-25T01:37:14.633Z,15.52
2023-08-25T01:39:48.192Z,15.10
2023-08-25T01:42:18.604Z,14.10
2023-08-25T01:44:50.035Z,12.90
2023-08-25T01:47:27.264Z,14.43
2023-08-25T01:49:59.018Z,14.30
2023-08-25T01:52:30.677Z,14.15
2023-08-25T01:55:02.216Z,14.48
2023-08-25T01:57:32.568Z,14.70
2023-08-25T02:00:03.602Z,13.63
2023-08-25T02:02:43.912Z,13.55
2023-08-25T02:05:13.735Z,13.20
2023-08-25T02:07:42.763Z,13.27
2023-08-25T02:10:12.090Z,12.88
2023-08-25T02:12:41.090Z,13.25
2023-08-25T02:15:10.672Z,12.55
2023-08-25T02:17:41.842Z,12.82
2023-08-25T02:20:14.612Z,13.35
2023-08-25T02:22:44.221Z,12.32
2023-08-25T02:25:15.798Z,12.48
2023-08-25T02:27:44.867Z,12.57
2023-08-25T02:30:14.308Z,12.43
2023-08-25T02:32:47.331Z,12.88
2023-08-25T02:35:16.465Z,12.18
2023-08-25T02:38:03.373Z,11.90
2023-08-25T02:40:42.329Z,11.85
2023-08-25T02:43:17.762Z,11.60
2023-08-25T02:45:48.029Z,11.70
2023-08-25T02:48:17.237Z,12.07
2023-08-25T02:50:49.037Z,11.32
2023-08-25T02:53:18.460Z,12.65
2023-08-25T02:55:49.013Z,12.40
2023-08-25T02:58:18.030Z,12.60
2023-08-25T03:00:47.790Z,11.73
2023-08-25T03:03:18.460Z,12.32
2023-08-25T03:05:51.468Z,12.52
2023-08-25T03:08:22.997Z,13.32
2023-08-25T03:10:52.014Z,12.50
2023-08-25T03:13:26.888Z,13.43
2023-08-25T03:15:58.856Z,12.70
2023-08-25T03:18:29.463Z,12.35
2023-08-25T03:20:58.750Z,12.15
2023-08-25T03:23:27.824Z,12.32
2023-08-25T03:26:02.553Z,12.25
2023-08-25T03:28:31.586Z,11.23
2023-08-25T03:31:00.719Z,11.73
2023-08-25T03:33:29.839Z,11.27
2023-08-25T03:35:58.975Z,11.13
2023-08-25T03:38:28.071Z,10.50
2023-08-25T03:41:01.404Z,10.75
2023-08-25T03:43:30.427Z,10.25
2023-08-25T03:46:11.031Z,9.73
2023-08-25T03:48:39.989Z,10.43
2023-08-25T03:51:09.038Z,10.13
2023-08-25T03:53:38.403Z,9.43
2023-08-25T03:56:08.777Z,9.25
2023-08-25T03:58:38.045Z,8.90
2023-08-25T04:01:07.207Z,8.68
2023-08-25T04:03:36.295Z,9.25
2023-08-25T04:06:06.105Z,9.43
2023-08-25T04:08:35.184Z,9.13
2023-08-25T04:11:04.736Z,8.60
2023-08-25T04:13:33.691Z,9.65
2023-08-25T04:16:06.505Z,9.32
2023-08-25T04:18:36.124Z,8.20
2023-08-25T04:21:05.282Z,8.85
2023-08-25T04:23:34.300Z,8.20
2023-08-25T04:26:03.800Z,8.13
2023-08-25T04:28:33.069Z,8.93
2023-08-25T04:31:02.551Z,9.02
2023-08-25T04:33:36.092Z,7.90
2023-08-25T04:36:05.316Z,8.80
2023-08-25T04:38:34.221Z,8.10
2023-08-25T04:41:04.252Z,8.68
2023-08-25T04:43:33.456Z,8.38
2023-08-25T04:46:03.544Z,8.55
2023-08-25T04:48:32.578Z,8.82
2023-08-25T04:51:01.518Z,8.70
2023-08-25T04:53:30.629Z,8.10
2023-08-25T04:56:00.804Z,8.55
2023-08-25T04:58:29.813Z,7.93
2023-08-25T05:00:59.351Z,8.60
2023-08-25T05:03:28.882Z,8.30
2023-08-25T05:05:57.971Z,8.07
2023-08-25T05:08:28.219Z,8.13
2023-08-25T05:10:57.984Z,8.68
2023-08-25T05:13:27.673Z,7.50
2023-08-25T05:15:57.243Z,8.32
2023-08-25T05:18:43.281Z,8.20
2023-08-25T05:21:14.062Z,7.88
2023-08-25T05:23:53.790Z,7.55
2023-08-25T05:26:23.107Z,8.48
2023-08-25T05:29:01.465Z,7.72
2023-08-25T05:31:39.253Z,8.30
2023-08-25T05:37:33.594Z,8.43
2023-08-25T05:40:02.797Z,7.53
2023-08-25T05:42:35.662Z,8.23
2023-08-25T05:45:05.481Z,7.57
2023-08-25T05:47:36.749Z,8.52
2023-08-25T05:50:07.270Z,8.20
2023-08-25T05:52:36.413Z,8.63
2023-08-25T05:56:04.801Z,8.32
2023-08-25T06:03:47.402Z,8.75
2023-08-25T06:06:55.097Z,8.70
2023-08-25T06:09:38.403Z,8.27
2023-08-25T06:12:09.093Z,8.75
2023-08-25T06:14:38.117Z,9.02
2023-08-25T06:17:07.033Z,8.88
2023-08-25T06:19:38.281Z,9.43
2023-08-25T06:22:07.342Z,9.07
2023-08-25T06:24:36.287Z,9.23
2023-08-25T06:27:05.495Z,10.10
2023-08-25T06:29:34.466Z,9.98
2023-08-25T06:32:03.391Z,11.00
2023-08-25T06:34:32.349Z,9.95
2023-08-25T06:37:01.562Z,9.68
2023-08-25T06:39:30.443Z,9.18
2023-08-25T06:41:59.440Z,9.65
2023-08-25T06:44:28.344Z,9.82
2023-08-25T06:46:59.250Z,9.27
2023-08-25T06:49:29.527Z,9.45
2023-08-25T06:51:58.371Z,9.23
2023-08-25T06:54:28.691Z,9.15
2023-08-25T06:56:58.386Z,9.07
2023-08-25T06:59:29.895Z,8.70
2023-08-25T07:02:01.519Z,9.25
2023-08-25T07:04:33.051Z,9.57
2023-08-25T07:07:02.720Z,9.13
2023-08-25T07:09:31.817Z,9.55
2023-08-25T07:12:00.931Z,9.30
2023-08-25T07:14:32.819Z,9.32
2023-08-25T07:17:04.439Z,9.52
2023-08-25T07:19:33.525Z,9.80
2023-08-25T07:22:04.619Z,10.93
2023-08-25T07:24:36.693Z,11.95
2023-08-25T07:27:07.241Z,11.98
2023-08-25T07:29:39.300Z,11.35
2023-08-25T07:32:08.672Z,11.25
2023-08-25T07:34:40.336Z,10.38
2023-08-25T07:37:09.375Z,9.77
2023-08-25T07:39:38.274Z,10.70
2023-08-25T07:42:07.909Z,9.73
2023-08-25T07:44:41.259Z,9.85
2023-08-25T07:47:13.287Z,10.00
2023-08-25T07:49:45.151Z,9.07
2023-08-25T07:52:15.871Z,9.98
2023-08-25T07:54:44.941Z,9.63
2023-08-25T07:57:17.229Z,10.98
2023-08-25T07:59:46.524Z,10.65
2023-08-25T08:02:16.561Z,10.90
2023-08-25T08:04:48.819Z,10.57
2023-08-25T08:07:17.843Z,9.50
2023-08-25T08:09:47.174Z,9.95
2023-08-25T08:12:16.222Z,9.98
2023-08-25T08:14:46.734Z,10.15
2023-08-25T08:17:16.153Z,9.70
2023-08-25T08:19:45.173Z,10.20
2023-08-25T08:22:14.212Z,10.20
2023-08-25T08:24:51.054Z,10.57
2023-08-25T08:27:26.670Z,11.18
2023-08-25T08:29:55.793Z,10.20
2023-08-25T08:32:24.876Z,10.25
2023-08-25T08:34:53.942Z,10.50
2023-08-25T08:37:25.875Z,10.93
2023-08-25T08:39:54.993Z,9.80
2023-08-25T08:42:24.756Z,10.52
2023-08-25T08:44:54.425Z,10.43
2023-08-25T08:47:24.289Z,10.35
2023-08-25T08:49:53.849Z,9.20
2023-08-25T08:52:22.974Z,10.00
2023-08-25T08:54:53.588Z,11.88
2023-08-25T08:57:25.187Z,10.98
2023-08-25T08:59:55.051Z,11.43
2023-08-25T09:02:25.360Z,11.05
2023-08-25T09:04:56.778Z,9.25
2023-08-25T09:07:30.090Z,9.18
2023-08-25T09:10:00.327Z,9.75
2023-08-25T09:12:31.192Z,10.07
2023-08-25T09:15:03.316Z,8.95
2023-08-25T09:17:34.206Z,9.70
2023-08-25T09:20:08.121Z,9.68
2023-08-25T09:22:37.330Z,9.85
2023-08-25T09:25:06.917Z,9.70
2023-08-25T09:27:35.943Z,9.23
2023-08-25T09:30:07.362Z,9.75
2023-08-25T09:32:36.687Z,9.85
2023-08-25T09:35:13.628Z,8.88
2023-08-25T09:37:45.993Z,9.73
2023-08-25T09:40:23.824Z,9.23
2023-08-25T09:43:06.046Z,9.27
2023-08-25T09:45:35.437Z,9.85
2023-08-25T09:48:15.135Z,9.45
2023-08-25T09:50:45.867Z,9.40
2023-08-25T09:53:15.389Z,10.05
2023-08-25T09:55:44.869Z,9.60
2023-08-25T09:58:16.628Z,9.40
2023-08-25T10:00:46.274Z,9.40
2023-08-25T10:03:15.495Z,8.98
2023-08-25T10:05:48.042Z,9.10
2023-08-25T10:08:18.788Z,10.00
2023-08-25T10:10:48.212Z,10.63
2023-08-25T10:13:20.985Z,9.68
2023-08-25T10:15:52.117Z,9.52
2023-08-25T10:18:21.612Z,9.43
2023-08-25T10:20:51.023Z,10.27
2023-08-25T10:23:21.538Z,9.48
2023-08-25T10:25:50.772Z,9.48
2023-08-25T10:28:20.266Z,9.85
2023-08-25T10:30:49.527Z,10.07
2023-08-25T10:33:21.447Z,9.43
2023-08-25T10:35:51.544Z,9.73
2023-08-25T10:38:20.717Z,9.23
2023-08-25T10:40:52.203Z,9.73
2023-08-25T10:43:34.053Z,9.40
2023-08-25T10:46:07.695Z,9.80
2023-08-25T10:48:37.850Z,9.05
2023-08-25T10:51:14.985Z,9.73
2023-08-25T10:53:49.878Z,9.57
2023-08-25T10:56:23.898Z,9.70
2023-08-25T10:59:06.597Z,9.25
2023-08-25T11:01:39.452Z,9.55
2023-08-25T11:04:14.855Z,9.38
2023-08-25T11:06:49.294Z,9.63
2023-08-25T11:09:22.416Z,9.75
2023-08-25T11:11:58.995Z,9.52
2023-08-25T11:17:01.176Z,9.43
2023-08-25T11:19:32.369Z,10.18
2023-08-25T11:22:07.492Z,9.18
2023-08-25T11:24:36.792Z,9.52
2023-08-25T11:27:11.202Z,9.07
2023-08-25T11:29:51.279Z,9.18
2023-08-25T11:32:20.483Z,10.05
2023-08-25T11:34:51.896Z,9.20
2023-08-25T11:37:22.790Z,9.60
2023-08-25T11:39:51.800Z,9.77
2023-08-25T11:42:26.661Z,9.30
2023-08-25T11:44:56.032Z,9.45
2023-08-25T11:47:25.249Z,10.02
2023-08-25T11:49:56.156Z,10.32
2023-08-25T11:52:25.325Z,10.10
2023-08-25T11:54:54.868Z,10.65
2023-08-25T11:57:35.597Z,9.73
2023-08-25T12:00:07.323Z,9.30
2023-08-25T12:02:39.613Z,10.35
2023-08-25T12:05:12.066Z,10.13
2023-08-25T12:07:43.068Z,8.88
2023-08-25T12:10:12.120Z,9.70
2023-08-25T12:12:41.512Z,10.05
2023-08-25T12:15:11.041Z,10.88
2023-08-25T12:17:44.245Z,9.65
2023-08-25T12:20:15.542Z,10.13
2023-08-25T12:23:01.141Z,9.77
2023-08-25T12:25:34.501Z,9.75
2023-08-25T12:28:04.137Z,10.27
2023-08-25T12:30:33.187Z,10.95
2023-08-25T12:33:03.127Z,9.95
2023-08-25T12:35:32.331Z,10.95
2023-08-25T12:38:01.312Z,9.98
2023-08-25T12:40:30.438Z,10.82
2023-08-25T12:42:59.350Z,10.93
2023-08-25T12:45:28.369Z,10.30
2023-08-25T12:47:57.847Z,10.50
2023-08-25T12:50:27.155Z,10.85
2023-08-25T12:52:56.388Z,10.00
2023-08-25T12:55:25.508Z,10.27
2023-08-25T12:57:57.586Z,10.88
2023-08-25T13:00:27.242Z,10.15
2023-08-25T13:02:57.288Z,10.07
2023-08-25T13:05:27.139Z,10.13
2023-08-25T13:07:56.718Z,10.23
2023-08-25T13:10:26.974Z,9.98
2023-08-25T13:12:56.057Z,10.40
2023-08-25T13:15:25.158Z,10.43
2023-08-25T13:17:54.594Z,10.55
2023-08-25T13:20:23.762Z,10.95
2023-08-25T13:22:52.782Z,10.38
2023-08-25T13:25:21.722Z,10.00
2023-08-25T13:27:50.769Z,10.05
2023-08-25T13:30:19.797Z,10.55
2023-08-25T13:32:48.789Z,9.98
2023-08-25T13:35:17.780Z,10.70
2023-08-25T13:37:46.882Z,10.55
2023-08-25T13:40:15.882Z,10.55
2023-08-25T13:42:44.989Z,11.05
2023-08-25T13:45:14.030Z,10.93
2023-08-25T13:47:43.087Z,9.57
2023-08-25T13:50:12.456Z,11.02
2023-08-25T13:52:41.599Z,12.27
2023-08-25T13:55:11.553Z,10.20
2023-08-25T13:57:40.883Z,10.85
2023-08-25T14:00:13.377Z,10.90
2023-08-25T14:02:48.281Z,10.07
2023-08-25T14:05:19.823Z,10.43
2023-08-25T14:07:51.061Z,10.73
2023-08-25T14:10:20.078Z,10.02
2023-08-25T14:12:49.021Z,10.77
2023-08-25T14:15:18.147Z,10.07
2023-08-25T14:17:47.140Z,10.13
2023-08-25T14:20:16.226Z,11.75
2023-08-25T14:22:45.100Z,11.23
2023-08-25T14:25:14.156Z,11.23
2023-08-25T14:27:43.210Z,11.38
2023-08-25T14:30:14.755Z,11.35
2023-08-25T14:32:46.840Z,11.43
2023-08-25T14:35:16.018Z,11.45
2023-08-25T14:37:48.075Z,10.85
2023-08-25T14:40:17.103Z,10.82
2023-08-25T14:42:48.883Z,10.70
2023-08-25T14:45:20.020Z,11.18
2023-08-25T14:47:49.001Z,10.23
2023-08-25T14:50:19.943Z,10.50
2023-08-25T14:52:48.930Z,11.70
2023-08-25T14:55:21.001Z,11.10
2023-08-25T14:57:50.220Z,11.80
2023-08-25T15:00:19.710Z,11.18
2023-08-25T15:02:49.551Z,10.55
2023-08-25T15:05:22.009Z,10.68
2023-08-25T15:07:51.009Z,11.15
2023-08-25T15:10:21.047Z,10.95
2023-08-25T15:12:50.129Z,11.13
2023-08-25T15:15:19.019Z,11.20
2023-08-25T15:17:48.299Z,10.80
2023-08-25T15:20:18.080Z,11.70
2023-08-25T15:22:47.061Z,11.10
2023-08-25T15:25:16.118Z,11.38
2023-08-25T15:27:45.197Z,11.77
2023-08-25T15:30:20.143Z,11.13
2023-08-25T15:32:49.824Z,10.90
2023-08-25T15:35:21.442Z,11.18
2023-08-25T15:37:52.092Z,12.25
2023-08-25T15:40:22.967Z,12.05
2023-08-25T15:42:52.136Z,11.73
2023-08-25T15:45:21.055Z,11.82
2023-08-25T15:47:50.079Z,12.50
2023-08-25T15:50:19.162Z,10.73
2023-08-25T15:52:48.145Z,11.25
2023-08-25T15:55:17.240Z,11.80
2023-08-25T15:57:46.253Z,12.18
2023-08-25T16:00:17.107Z,12.63
2023-08-25T16:02:47.848Z,12.50
2023-08-25T16:05:16.874Z,13.13
2023-08-25T16:07:45.895Z,13.13
2023-08-25T16:10:14.961Z,12.82
2023-08-25T16:12:44.146Z,12.65
2023-08-25T16:15:13.544Z,12.10
2023-08-25T16:17:44.161Z,13.10
2023-08-25T16:20:13.666Z,13.63
2023-08-25T16:22:42.569Z,14.38
2023-08-25T16:25:13.249Z,13.63
2023-08-25T16:27:45.310Z,12.65
2023-08-25T16:30:14.894Z,13.70
2023-08-25T16:32:43.870Z,12.93
2023-08-25T16:35:12.995Z,13.93
2023-08-25T16:37:41.937Z,14.00
2023-08-25T16:40:12.978Z,12.57
2023-08-25T16:42:42.092Z,13.25
2023-08-25T16:45:11.573Z,13.02
2023-08-25T16:47:41.087Z,13.48
2023-08-25T16:50:10.949Z,13.05
2023-08-25T16:52:40.078Z,12.82
2023-08-25T16:55:13.769Z,12.75
2023-08-25T16:57:43.588Z,14.00
2023-08-25T17:00:14.173Z,13.30
2023-08-25T17:02:47.227Z,13.00
2023-08-25T17:05:24.146Z,13.55
2023-08-25T17:07:53.476Z,13.18
2023-08-25T17:10:23.290Z,13.02
2023-08-25T17:12:54.921Z,13.00
2023-08-25T17:15:26.181Z,12.98
2023-08-25T17:17:55.239Z,13.88
2023-08-25T17:20:24.442Z,12.98
2023-08-25T17:22:57.687Z,13.02
2023-08-25T17:25:26.816Z,13.32
2023-08-25T17:27:57.023Z,13.38
2023-08-25T17:30:26.322Z,13.32
2023-08-25T17:32:55.614Z,13.63
2023-08-25T17:35:27.666Z,14.15
2023-08-25T17:37:56.664Z,13.35
2023-08-25T17:40:25.624Z,13.27
2023-08-25T17:42:55.034Z,14.60
2023-08-25T17:45:24.328Z,14.48
2023-08-25T17:47:53.286Z,15.07
2023-08-25T17:50:22.285Z,14.13
2023-08-25T17:52:51.198Z,14.23
2023-08-25T17:55:20.189Z,13.40
2023-08-25T17:57:49.152Z,14.32
2023-08-25T18:00:18.324Z,14.82
2023-08-25T18:02:49.534Z,15.40
2023-08-25T18:05:18.641Z,15.88
2023-08-25T18:07:47.763Z,15.52
2023-08-25T18:10:16.898Z,15.10
2023-08-25T18:12:45.848Z,16.35
2023-08-25T18:15:14.741Z,15.50
2023-08-25T18:17:43.806Z,15.43
2023-08-25T18:20:13.289Z,15.27
2023-08-25T18:22:42.218Z,14.70
2023-08-25T18:25:11.215Z,14.77
2023-08-25T18:27:43.594Z,15.15
2023-08-25T18:30:13.100Z,14.85
2023-08-25T18:32:44.899Z,15.40
2023-08-25T18:35:13.976Z,14.00
2023-08-25T18:37:44.393Z,15.82
2023-08-25T18:40:13.487Z,14.48
2023-08-25T18:42:42.408Z,15.57
2023-08-25T18:45:11.899Z,14.80
2023-08-25T18:47:40.816Z,15.30
2023-08-25T18:50:15.002Z,15.75
2023-08-25T18:52:44.033Z,15.30
2023-08-25T18:55:12.908Z,16.25
2023-08-25T18:57:42.099Z,16.00
2023-08-25T19:00:12.536Z,16.05
2023-08-25T19:02:41.753Z,15.85
2023-08-25T19:05:11.002Z,16.60
2023-08-25T19:07:40.241Z,15.60
2023-08-25T19:10:10.024Z,16.65
2023-08-25T19:12:39.166Z,16.20
2023-08-25T19:15:08.664Z,16.00
2023-08-25T19:17:37.747Z,16.00
2023-08-25T19:20:11.063Z,15.65
2023-08-25T19:22:41.297Z,15.63
2023-08-25T19:25:10.892Z,15.57
2023-08-25T19:27:40.194Z,15.23
2023-08-25T19:30:10.062Z,15.70
2023-08-25T19:32:42.525Z,15.80
2023-08-25T19:35:11.827Z,15.23
2023-08-25T19:37:40.696Z,14.27
2023-08-25T19:41:28.941Z,14.55
2023-08-25T19:47:59.264Z,14.38
2023-08-25T19:50:31.435Z,13.35
2023-08-25T19:53:03.695Z,14.20
2023-08-25T19:55:32.874Z,14.45
2023-08-25T19:58:01.803Z,15.07
2023-08-25T20:00:33.634Z,13.65
2023-08-25T20:03:05.792Z,14.27
2023-08-25T20:05:41.356Z,14.60
2023-08-25T20:08:14.583Z,13.68
2023-08-25T20:10:44.665Z,13.73
2023-08-25T20:13:14.602Z,14.98
2023-08-25T20:15:44.454Z,14.00
2023-08-25T20:18:14.655Z,13.63
2023-08-25T20:20:47.263Z,14.07
2023-08-25T20:23:26.158Z,14.30
2023-08-25T20:25:56.701Z,14.02
2023-08-25T20:28:27.128Z,13.07
2023-08-25T20:30:57.123Z,13.93
2023-08-25T20:33:27.236Z,13.70
2023-08-25T20:36:00.530Z,14.48
2023-08-25T20:38:30.695Z,14.60
2023-08-25T20:41:02.651Z,13.70
2023-08-25T20:43:34.571Z,13.70
2023-08-25T20:46:20.553Z,13.77
2023-08-25T20:48:53.853Z,13.18
2023-08-25T20:51:28.898Z,13.05
2023-08-25T20:53:59.336Z,13.48
2023-08-25T20:56:32.222Z,13.80
2023-08-25T20:59:02.387Z,13.30
2023-08-25T21:01:32.564Z,13.13
2023-08-25T21:04:02.635Z,12.98
2023-08-25T21:06:35.450Z,12.60
2023-08-25T21:09:06.329Z,13.30
2023-08-25T21:11:36.388Z,13.23
2023-08-25T21:14:06.733Z,13.50
2023-08-25T21:16:40.147Z,13.15
2023-08-25T21:19:11.831Z,13.65
2023-08-25T21:21:43.066Z,13.32
2023-08-25T21:24:13.392Z,13.80
2023-08-25T21:26:44.523Z,14.00
2023-08-25T21:29:14.813Z,14.15
2023-08-25T21:31:45.159Z,14.07
2023-08-25T21:34:15.090Z,13.68
2023-08-25T21:36:44.445Z,13.38
2023-08-25T21:39:13.463Z,13.40
2023-08-25T21:41:45.219Z,13.18
2023-08-25T21:44:14.296Z,12.77
2023-08-25T21:46:43.235Z,13.07
2023-08-25T21:49:12.284Z,12.93
2023-08-25T21:51:41.244Z,13.48
2023-08-25T21:54:10.234Z,13.05
2023-08-25T21:56:44.316Z,13.75
2023-08-25T21:59:13.425Z,13.02
2023-08-25T22:01:42.509Z,13.20
2023-08-25T22:04:12.764Z,13.00
2023-08-25T22:06:42.127Z,13.27
2023-08-25T22:09:12.139Z,12.85
2023-08-25T22:11:41.172Z,13.30
2023-08-25T22:14:10.063Z,13.75
2023-08-25T22:16:39.732Z,14.30
2023-08-25T22:19:08.775Z,13.18
2023-08-25T22:21:38.338Z,12.95
2023-08-25T22:24:08.559Z,13.82
2023-08-25T22:26:40.538Z,13.68
2023-08-25T22:29:09.565Z,14.20
2023-08-25T22:31:38.568Z,14.40
2023-08-25T22:36:47.281Z,13.63
2023-08-25T22:39:17.520Z,13.93
2023-08-25T22:41:46.818Z,13.63
2023-08-25T22:44:15.962Z,14.88
2023-08-25T22:46:45.300Z,14.02
2023-08-25T22:49:16.671Z,14.77
2023-08-25T22:51:45.885Z,14.50
2023-08-25T22:54:17.736Z,13.75
2023-08-25T22:56:50.399Z,14.20
2023-08-25T22:59:19.515Z,13.98
2023-08-25T23:01:50.584Z,14.48
2023-08-25T23:04:20.573Z,14.50
2023-08-25T23:06:49.947Z,14.30
2023-08-25T23:09:24.119Z,14.63
2023-08-25T23:11:55.294Z,14.30
2023-08-25T23:14:24.312Z,14.63
2023-08-25T23:16:53.352Z,14.57
2023-08-25T23:19:28.958Z,13.95
2023-08-25T23:21:58.006Z,14.65
2023-08-25T23:24:27.053Z,14.65
2023-08-25T23:26:56.048Z,14.07
2023-08-25T23:29:25.000Z,14.60
2023-08-25T23:31:54.490Z,14.82
2023-08-25T23:34:23.818Z,14.80
2023-08-25T23:36:52.760Z,14.65
2023-08-25T23:39:21.676Z,14.43
2023-08-25T23:41:50.913Z,14.57
2023-08-25T23:44:19.851Z,14.77
2023-08-25T23:46:48.739Z,14.77
2023-08-25T23:49:17.901Z,14.65
2023-08-25T23:51:46.884Z,14.10
2023-08-25T23:54:15.986Z,15.35
2023-08-25T23:56:45.008Z,15.27
2023-08-25T23:59:14.027Z,14.88
